Time;durP1;ratioP1;P1;durP2;ratioP2;P2;SDS_P1;SDS_P2;PMS_P1;PMS_P2;Temp;Humidity;BMP_temperature;BMP_pressure;BME280_temperature;BME280_humidity;BME280_pressure;Samples;Min_cycle;Max_cycle;Signal;HPM_P1;HPM_P2
2022/10/28 00:01:22;;;;;;;2.97;1.30;;;28.80;94.20;;;;;;4947146;29;20028;-46
2022/10/28 00:03:57;;;;;;;1.55;1.10;;;28.70;94.20;;;;;;4946741;29;20307;-45
2022/10/28 00:06:32;;;;;;;3.85;1.25;;;28.70;94.20;;;;;;4947047;29;20039;-43
2022/10/28 00:09:00;;;;;;;5.82;2.72;;;28.70;94.10;;;;;;4947037;29;20035;-42
2022/10/28 00:11:30;;;;;;;3.65;1.67;;;28.70;94.30;;;;;;4947003;29;20031;-43
2022/10/28 00:13:58;;;;;;;2.40;1.63;;;28.70;94.30;;;;;;4929808;29;20247;-42
2022/10/28 00:16:28;;;;;;;4.80;1.48;;;28.70;94.40;;;;;;4946703;29;20026;-45
2022/10/28 00:18:56;;;;;;;7.07;1.35;;;28.70;94.40;;;;;;4946367;29;20311;-42
2022/10/28 00:21:26;;;;;;;6.45;2.00;;;28.70;94.50;;;;;;4946783;29;20319;-49
2022/10/28 00:23:53;;;;;;;7.68;1.77;;;28.70;94.60;;;;;;4946938;29;20038;-43
2022/10/28 00:26:31;;;;;;;4.38;1.60;;;28.70;94.50;;;;;;4946554;29;20035;-41
2022/10/28 00:29:03;;;;;;;4.68;1.90;;;28.70;94.30;;;;;;4945973;29;20031;-49
2022/10/28 00:31:31;;;;;;;11.35;2.10;;;28.70;94.40;;;;;;4943787;29;20031;-46
2022/10/28 00:34:00;;;;;;;7.05;2.00;;;28.70;94.40;;;;;;4946418;29;20184;-43
2022/10/28 00:36:34;;;;;;;9.52;2.30;;;28.70;94.40;;;;;;4945714;29;20036;-44
2022/10/28 00:39:03;;;;;;;18.65;2.30;;;28.70;94.30;;;;;;4944486;29;20330;-47
2022/10/28 00:41:35;;;;;;;17.42;2.50;;;28.70;94.40;;;;;;4945223;29;20127;-44
2022/10/28 00:44:37;;;;;;;26.20;2.90;;;28.70;94.40;;;;;;4924405;29;20327;-46
2022/10/28 00:47:06;;;;;;;26.95;2.83;;;28.70;94.40;;;;;;4945678;29;20350;-44
2022/10/28 00:49:34;;;;;;;22.35;2.65;;;28.70;94.30;;;;;;4945618;29;20358;-42
2022/10/28 00:52:09;;;;;;;15.35;2.45;;;28.70;94.20;;;;;;4945746;29;20044;-51
2022/10/28 00:54:39;;;;;;;14.30;3.00;;;28.70;94.20;;;;;;4928753;29;20308;-44
2022/10/28 00:57:11;;;;;;;17.90;2.80;;;28.70;94.30;;;;;;4945887;29;20038;-44
2022/10/28 00:59:43;;;;;;;19.98;2.90;;;28.80;94.30;;;;;;4946260;29;20027;-48
2022/10/28 01:02:09;;;;;;;13.63;2.65;;;28.80;94.30;;;;;;4945517;29;20320;-47
2022/10/28 01:04:36;;;;;;;8.68;2.10;;;28.80;94.30;;;;;;4946698;29;20087;-46
2022/10/28 01:07:03;;;;;;;10.93;2.22;;;28.80;94.20;;;;;;4945310;29;20345;-45
2022/10/28 01:09:29;;;;;;;11.65;2.00;;;28.80;94.20;;;;;;4946025;29;20039;-45
2022/10/28 01:12:20;;;;;;;5.28;1.83;;;28.70;94.20;;;;;;4946255;29;20084;-45
2022/10/28 01:15:15;;;;;;;6.65;1.55;;;28.80;94.20;;;;;;4946122;29;20038;-42
2022/10/28 01:18:01;;;;;;;6.10;1.85;;;28.80;94.20;;;;;;4943624;29;20036;-47
2022/10/28 01:21:05;;;;;;;8.38;1.58;;;28.70;94.20;;;;;;4927960;29;20031;-42
2022/10/28 01:23:56;;;;;;;13.30;1.70;;;28.80;94.20;;;;;;4965270;29;20035;-42
2022/10/28 01:26:41;;;;;;;4.45;1.45;;;28.80;94.10;;;;;;4960571;29;20028;-45
2022/10/28 01:29:20;;;;;;;9.23;1.80;;;28.80;94.10;;;;;;4950137;29;20027;-42
2022/10/28 01:31:50;;;;;;;9.30;2.08;;;28.70;94.10;;;;;;4949036;29;20436;-42
2022/10/28 01:34:34;;;;;;;9.98;2.03;;;28.70;94.00;;;;;;4950088;29;20235;-45
2022/10/28 01:37:39;;;;;;;14.75;1.95;;;28.70;94.10;;;;;;4949733;29;20031;-41
2022/10/28 01:40:17;;;;;;;6.60;1.55;;;28.70;94.10;;;;;;4949832;29;20315;-42
2022/10/28 01:43:11;;;;;;;8.25;1.65;;;28.70;94.10;;;;;;4949371;29;20042;-46
2022/10/28 01:45:48;;;;;;;10.00;1.60;;;28.70;94.10;;;;;;4922307;29;20044;-43
2022/10/28 01:48:21;;;;;;;6.10;1.90;;;28.70;94.10;;;;;;4948559;29;20335;-48
2022/10/28 01:50:50;;;;;;;;;;;28.70;94.10;;;;;;4945857;29;20028;-46
2022/10/28 01:53:25;;;;;;;8.93;2.20;;;28.70;94.10;;;;;;4930473;29;19911;-43
2022/10/28 01:55:55;;;;;;;10.55;1.95;;;28.70;94.20;;;;;;4929079;29;20332;-44
2022/10/28 01:58:27;;;;;;;10.52;2.22;;;28.70;94.10;;;;;;4913640;29;20343;-43
2022/10/28 02:00:54;;;;;;;8.70;1.80;;;28.70;94.10;;;;;;4935148;29;20038;-42
2022/10/28 02:03:22;;;;;;;11.27;2.40;;;28.70;94.20;;;;;;4949332;29;20043;-42
2022/10/28 02:05:54;;;;;;;14.25;2.20;;;28.70;94.20;;;;;;4948435;29;20068;-42
2022/10/28 02:08:30;;;;;;;4.97;1.77;;;28.80;94.20;;;;;;4948005;29;20066;-42
2022/10/28 02:10:59;;;;;;;7.10;1.83;;;28.80;94.20;;;;;;4948282;29;20035;-44
2022/10/28 02:13:44;;;;;;;5.03;1.70;;;28.70;94.00;;;;;;4948379;29;20027;-45
2022/10/28 02:16:23;;;;;;;4.50;1.63;;;28.80;94.00;;;;;;4948554;29;20032;-45
2022/10/28 02:19:22;;;;;;;6.90;1.70;;;28.80;94.00;;;;;;4948983;29;20324;-49
2022/10/28 02:21:52;;;;;;;5.88;1.70;;;28.80;94.10;;;;;;4922104;29;20044;-47
2022/10/28 02:24:39;;;;;;;9.45;1.88;;;28.80;94.10;;;;;;4948518;29;20085;-43
2022/10/28 02:27:16;;;;;;;3.42;1.70;;;28.70;94.10;;;;;;4949089;29;20027;-49
2022/10/28 02:30:12;;;;;;;1.70;1.60;;;28.70;94.10;;;;;;4949359;29;20071;-55
2022/10/28 02:32:43;;;;;;;4.00;1.58;;;28.70;94.10;;;;;;4947845;29;20051;-43
2022/10/28 02:35:19;;;;;;;9.13;1.60;;;28.70;94.20;;;;;;4948783;29;20074;-45
2022/10/28 02:37:50;;;;;;;3.80;1.60;;;28.70;94.20;;;;;;4948899;29;20036;-46
2022/10/28 02:40:23;;;;;;;6.68;1.83;;;28.70;94.20;;;;;;4948840;29;20032;-43
2022/10/28 02:42:59;;;;;;;5.75;2.28;;;28.70;94.20;;;;;;4948710;29;20047;-45
2022/10/28 02:45:30;;;;;;;7.40;2.08;;;28.70;94.20;;;;;;4948190;29;20031;-48
2022/10/28 02:48:01;;;;;;;6.87;2.70;;;28.70;94.20;;;;;;4948294;29;20180;-44
2022/10/28 02:50:35;;;;;;;5.93;2.30;;;28.70;94.20;;;;;;4948531;29;20040;-49
2022/10/28 02:53:09;;;;;;;4.32;1.90;;;28.70;94.20;;;;;;4948527;29;20042;-46
2022/10/28 02:55:42;;;;;;;5.88;1.60;;;28.70;94.20;;;;;;4948716;29;20030;-41
2022/10/28 02:58:10;;;;;;;3.33;1.33;;;28.70;94.30;;;;;;4931461;29;20201;-48
2022/10/28 03:00:37;;;;;;;6.03;1.77;;;28.60;94.20;;;;;;4947603;29;20083;-44
2022/10/28 03:03:03;;;;;;;3.50;1.35;;;28.60;94.30;;;;;;4948639;29;20098;-44
2022/10/28 03:05:30;;;;;;;3.63;1.50;;;28.60;94.40;;;;;;4948515;29;20038;-44
2022/10/28 03:07:56;;;;;;;5.13;1.75;;;28.60;94.40;;;;;;4948175;29;20271;-42
2022/10/28 03:10:23;;;;;;;7.10;1.48;;;28.60;94.40;;;;;;4948131;29;20023;-45
2022/10/28 03:12:49;;;;;;;4.50;1.38;;;28.60;94.50;;;;;;4947829;29;20099;-47
2022/10/28 03:15:18;;;;;;;5.15;1.60;;;28.60;94.60;;;;;;4947851;29;20248;-48
2022/10/28 03:17:44;;;;;;;5.10;1.55;;;28.60;94.60;;;;;;4948247;29;20075;-47
2022/10/28 03:20:11;;;;;;;5.13;1.25;;;28.60;94.70;;;;;;4948164;29;20035;-43
2022/10/28 03:22:37;;;;;;;9.60;1.30;;;28.60;94.50;;;;;;4947883;29;20031;-43
2022/10/28 03:25:05;;;;;;;3.25;1.25;;;28.60;94.60;;;;;;4947926;29;20083;-42
2022/10/28 03:27:32;;;;;;;4.50;1.13;;;28.50;94.60;;;;;;4947782;29;20044;-44
2022/10/28 03:29:59;;;;;;;3.13;1.35;;;28.50;94.60;;;;;;4947689;29;20063;-50
2022/10/28 03:32:26;;;;;;;4.07;1.33;;;28.50;94.70;;;;;;4947907;29;20383;-45
2022/10/28 03:34:53;;;;;;;4.70;1.10;;;28.50;94.70;;;;;;4947489;29;20090;-44
2022/10/28 03:37:19;;;;;;;2.58;1.10;;;28.50;94.80;;;;;;4947202;29;20324;-50
2022/10/28 03:39:46;;;;;;;3.63;1.20;;;28.50;94.70;;;;;;4946489;29;20027;-42
2022/10/28 03:42:12;;;;;;;7.60;1.15;;;28.50;94.70;;;;;;4947686;29;20023;-40
2022/10/28 03:44:39;;;;;;;4.65;1.10;;;28.40;94.80;;;;;;4947991;29;20074;-44
2022/10/28 03:47:05;;;;;;;2.38;1.00;;;28.40;94.70;;;;;;4947220;29;20154;-42
2022/10/28 03:49:32;;;;;;;1.85;1.00;;;28.40;94.80;;;;;;4947082;29;20098;-43
2022/10/28 03:51:59;;;;;;;4.40;1.23;;;28.40;94.80;;;;;;4947316;29;20335;-44
2022/10/28 03:54:25;;;;;;;3.60;1.08;;;28.40;94.90;;;;;;4947653;29;20088;-47
2022/10/28 03:56:52;;;;;;;5.45;1.10;;;28.40;95.00;;;;;;4947213;29;20055;-44
2022/10/28 03:59:19;;;;;;;4.78;1.33;;;28.40;95.00;;;;;;4947686;29;20359;-45
2022/10/28 04:01:45;;;;;;;4.82;1.17;;;28.40;94.90;;;;;;4947261;29;20043;-43
2022/10/28 04:04:12;;;;;;;4.32;1.20;;;28.40;95.00;;;;;;4947610;29;20027;-46
2022/10/28 04:06:38;;;;;;;3.95;1.10;;;28.40;95.00;;;;;;4947128;29;20327;-41
2022/10/28 04:09:05;;;;;;;4.47;1.13;;;28.30;95.10;;;;;;4947342;29;20103;-41
2022/10/28 04:11:31;;;;;;;4.45;1.55;;;28.30;95.10;;;;;;4946728;29;20028;-43
2022/10/28 04:13:58;;;;;;;37.30;3.08;;;28.30;95.10;;;;;;4947397;29;20059;-42
2022/10/28 04:16:24;;;;;;;4.47;1.30;;;28.30;95.10;;;;;;4946918;29;20026;-43
2022/10/28 04:18:51;;;;;;;4.38;1.30;;;28.30;95.10;;;;;;4947211;29;20303;-44
2022/10/28 04:21:17;;;;;;;5.03;1.05;;;28.30;95.20;;;;;;4947010;29;20098;-43
2022/10/28 04:23:44;;;;;;;5.05;1.33;;;28.30;95.20;;;;;;4947058;29;20099;-42
2022/10/28 04:26:11;;;;;;;8.40;1.60;;;28.30;95.20;;;;;;4946889;29;20035;-43
2022/10/28 04:28:37;;;;;;;17.67;2.38;;;28.30;95.20;;;;;;4946991;29;20028;-43
2022/10/28 04:31:04;;;;;;;14.45;2.05;;;28.30;95.30;;;;;;4946504;29;20035;-41
2022/10/28 04:33:30;;;;;;;13.73;2.25;;;28.30;95.30;;;;;;4947070;29;20066;-42
2022/10/28 04:35:57;;;;;;;13.10;1.60;;;28.30;95.30;;;;;;4946797;29;20024;-42
2022/10/28 04:38:23;;;;;;;8.48;1.90;;;28.30;95.30;;;;;;4946668;29;20035;-42
2022/10/28 04:40:50;;;;;;;6.65;1.67;;;28.30;95.30;;;;;;4946610;29;20030;-40
2022/10/28 04:43:16;;;;;;;17.23;2.03;;;28.30;95.30;;;;;;4946826;29;20320;-41
2022/10/28 04:45:44;;;;;;;16.15;2.03;;;28.30;95.30;;;;;;4946532;29;20042;-41
2022/10/28 04:48:11;;;;;;;5.53;1.50;;;28.20;95.30;;;;;;4946271;29;20240;-49
2022/10/28 04:50:37;;;;;;;4.85;1.40;;;28.20;95.30;;;;;;4946586;29;20372;-44
2022/10/28 04:53:04;;;;;;;8.70;1.55;;;28.30;95.40;;;;;;4946538;29;20087;-42
2022/10/28 04:55:30;;;;;;;4.20;1.48;;;28.20;95.40;;;;;;4946451;29;20034;-43
2022/10/28 04:57:59;;;;;;;7.43;1.48;;;28.20;95.40;;;;;;4946611;29;20315;-45
2022/10/28 05:00:27;;;;;;;5.07;1.52;;;28.30;95.50;;;;;;4945244;29;20371;-41
2022/10/28 05:02:54;;;;;;;5.07;1.38;;;28.20;95.40;;;;;;4946449;29;20091;-42
2022/10/28 05:05:21;;;;;;;5.65;1.40;;;28.20;95.30;;;;;;4946451;29;20249;-42
2022/10/28 05:07:48;;;;;;;1.90;1.17;;;28.20;95.10;;;;;;4946368;29;20083;-42
2022/10/28 05:10:16;;;;;;;5.15;1.50;;;28.20;95.10;;;;;;4946355;29;20042;-48
2022/10/28 05:12:44;;;;;;;4.15;1.25;;;28.20;95.00;;;;;;4946211;29;20059;-42
2022/10/28 05:15:12;;;;;;;4.90;0.90;;;28.20;95.00;;;;;;4946014;29;20227;-42
2022/10/28 05:17:40;;;;;;;3.85;1.00;;;28.20;95.00;;;;;;4946459;29;21771;-44
2022/10/28 05:20:08;;;;;;;4.43;1.10;;;28.10;94.90;;;;;;4946294;29;20223;-43
2022/10/28 05:22:34;;;;;;;1.88;0.93;;;28.10;94.90;;;;;;4946128;29;20035;-42
2022/10/28 05:25:01;;;;;;;6.63;1.20;;;28.10;94.90;;;;;;4945915;29;20038;-42
2022/10/28 05:27:28;;;;;;;1.73;1.00;;;28.10;94.90;;;;;;4946142;29;20036;-42
2022/10/28 05:29:54;;;;;;;2.65;1.02;;;28.10;94.80;;;;;;4946012;29;20028;-41
2022/10/28 05:32:21;;;;;;;2.75;1.10;;;28.10;94.80;;;;;;4945739;29;20276;-43
2022/10/28 05:34:48;;;;;;;5.18;1.10;;;28.10;94.80;;;;;;4946657;29;20032;-47
2022/10/28 05:37:15;;;;;;;3.83;1.10;;;28.10;94.70;;;;;;4946044;29;20066;-42
2022/10/28 05:39:41;;;;;;;5.95;0.82;;;28.10;94.80;;;;;;4946845;29;20219;-41
2022/10/28 05:42:08;;;;;;;2.28;1.13;;;28.10;94.80;;;;;;4946179;29;20022;-41
2022/10/28 05:44:34;;;;;;;4.07;1.15;;;28.10;94.80;;;;;;4946586;29;20260;-42
2022/10/28 05:47:01;;;;;;;3.17;0.95;;;28.10;94.80;;;;;;4946229;29;20039;-43
2022/10/28 05:49:27;;;;;;;6.70;1.30;;;28.10;94.80;;;;;;4945916;29;20327;-49
2022/10/28 05:51:54;;;;;;;4.43;0.95;;;28.10;94.80;;;;;;4945976;29;20032;-42
2022/10/28 05:54:21;;;;;;;3.25;0.85;;;28.10;94.80;;;;;;4946221;29;20023;-43
2022/10/28 05:56:47;;;;;;;5.07;1.10;;;28.00;94.90;;;;;;4945917;29;20031;-43
2022/10/28 05:59:13;;;;;;;4.20;1.02;;;28.00;94.90;;;;;;4946291;29;20036;-47
2022/10/28 06:01:40;;;;;;;4.95;1.00;;;28.10;94.90;;;;;;4945854;29;20031;-48
2022/10/28 06:04:07;;;;;;;4.57;1.10;;;28.00;95.00;;;;;;4946195;29;20330;-46
2022/10/28 06:06:33;;;;;;;2.20;0.93;;;28.00;94.90;;;;;;4945846;29;20027;-54
2022/10/28 06:09:00;;;;;;;1.85;1.10;;;28.00;94.90;;;;;;4945456;29;20341;-55
2022/10/28 06:11:27;;;;;;;5.85;1.27;;;28.10;94.80;;;;;;4946618;29;20094;-44
2022/10/28 06:13:53;;;;;;;2.08;1.13;;;28.00;94.80;;;;;;4949211;29;20027;-45
2022/10/28 06:16:20;;;;;;;2.83;1.10;;;28.00;94.70;;;;;;4949079;29;20211;-43
2022/10/28 06:18:46;;;;;;;5.53;1.23;;;28.00;94.60;;;;;;4949469;29;20059;-43
2022/10/28 06:21:13;;;;;;;2.70;0.82;;;28.00;94.40;;;;;;4949274;29;20410;-47
2022/10/28 06:23:40;;;;;;;4.88;0.88;;;27.90;93.90;;;;;;4949243;29;20086;-48
2022/10/28 06:26:06;;;;;;;2.90;0.60;;;27.90;93.70;;;;;;4949311;29;20024;-43
2022/10/28 06:28:33;;;;;;;1.90;0.50;;;27.90;93.40;;;;;;4949183;29;20281;-49
2022/10/28 06:31:04;;;;;;;1.90;0.40;;;27.90;93.10;;;;;;4948761;29;20219;-45
2022/10/28 06:33:32;;;;;;;1.70;0.43;;;27.90;93.10;;;;;;4949510;29;20227;-44
2022/10/28 06:35:59;;;;;;;2.67;0.47;;;27.90;92.80;;;;;;4948871;29;20025;-46
2022/10/28 06:38:27;;;;;;;1.08;0.40;;;27.90;92.80;;;;;;4948931;29;20035;-47
2022/10/28 06:40:53;;;;;;;1.02;0.30;;;27.80;92.80;;;;;;4948813;29;20039;-46
2022/10/28 06:43:20;;;;;;;1.60;0.30;;;27.80;92.60;;;;;;4948842;29;20027;-45
2022/10/28 06:45:47;;;;;;;1.15;0.30;;;27.80;92.60;;;;;;4948841;29;20063;-41
2022/10/28 06:48:13;;;;;;;2.83;0.30;;;27.80;92.40;;;;;;4947849;29;20165;-42
2022/10/28 06:50:40;;;;;;;1.38;0.13;;;27.80;92.40;;;;;;4948501;29;20040;-42
2022/10/28 06:53:08;;;;;;;0.85;0.20;;;27.80;92.50;;;;;;4948558;29;20300;-43
2022/10/28 06:55:34;;;;;;;2.38;0.30;;;27.80;92.40;;;;;;4948494;29;20055;-44
2022/10/28 06:58:02;;;;;;;1.15;0.40;;;27.70;92.40;;;;;;4948617;29;20054;-41
2022/10/28 07:00:32;;;;;;;1.25;0.20;;;27.70;92.50;;;;;;4948331;29;20030;-43
2022/10/28 07:02:58;;;;;;;0.43;0.20;;;27.70;92.50;;;;;;4948401;29;20032;-43
2022/10/28 07:05:27;;;;;;;2.47;0.38;;;27.70;92.50;;;;;;4948630;29;20083;-43
2022/10/28 07:07:53;;;;;;;1.30;0.13;;;27.70;92.50;;;;;;4948251;29;20055;-44
2022/10/28 07:10:20;;;;;;;3.08;0.20;;;27.70;92.50;;;;;;4948203;29;20091;-44
2022/10/28 07:12:46;;;;;;;1.45;0.25;;;27.60;92.60;;;;;;4948451;29;20031;-43
2022/10/28 07:15:13;;;;;;;1.77;0.40;;;27.60;92.70;;;;;;4948004;29;20059;-44
2022/10/28 07:17:40;;;;;;;1.55;0.30;;;27.70;92.70;;;;;;4948162;29;20031;-44
2022/10/28 07:20:07;;;;;;;0.47;0.20;;;27.60;92.80;;;;;;4948267;29;20234;-44
2022/10/28 07:22:33;;;;;;;2.63;0.35;;;27.60;92.80;;;;;;4946982;29;20023;-47
2022/10/28 07:25:00;;;;;;;1.70;0.30;;;27.60;92.90;;;;;;4948013;29;20338;-52
2022/10/28 07:27:26;;;;;;;1.05;0.10;;;27.60;92.90;;;;;;4947931;29;20046;-52
2022/10/28 07:29:53;;;;;;;2.40;0.25;;;27.50;92.80;;;;;;4947776;29;20027;-52
2022/10/28 07:32:20;;;;;;;1.50;0.20;;;27.60;92.70;;;;;;4947836;29;20032;-53
2022/10/28 07:34:46;;;;;;;3.35;0.30;;;27.60;92.80;;;;;;4947777;29;20034;-52
2022/10/28 07:37:13;;;;;;;0.95;0.20;;;27.50;92.70;;;;;;4947925;29;20055;-58
2022/10/28 07:39:39;;;;;;;1.95;0.30;;;27.50;92.70;;;;;;4948153;29;20118;-52
2022/10/28 07:42:06;;;;;;;0.98;0.30;;;27.50;92.60;;;;;;4947677;29;20023;-52
2022/10/28 07:44:32;;;;;;;2.10;0.20;;;27.50;92.70;;;;;;4947998;29;20052;-45
2022/10/28 07:46:59;;;;;;;1.80;0.28;;;27.50;92.70;;;;;;4947547;29;20039;-41
2022/10/28 07:49:25;;;;;;;1.95;0.20;;;27.50;92.90;;;;;;4947458;29;20106;-41
2022/10/28 07:51:52;;;;;;;3.08;0.30;;;27.50;92.90;;;;;;4947460;29;20235;-43
2022/10/28 07:54:19;;;;;;;3.90;0.40;;;27.40;92.90;;;;;;4947551;29;20095;-44
2022/10/28 07:56:45;;;;;;;1.42;0.22;;;27.50;93.00;;;;;;4947069;29;20035;-46
2022/10/28 07:59:12;;;;;;;1.55;0.20;;;27.40;93.00;;;;;;4947850;29;20023;-49
2022/10/28 08:01:39;;;;;;;1.67;0.30;;;27.40;93.10;;;;;;4947232;29;20024;-41
2022/10/28 08:04:05;;;;;;;2.00;0.30;;;27.40;93.10;;;;;;4947665;29;20039;-43
2022/10/28 08:06:34;;;;;;;3.95;0.55;;;27.40;93.30;;;;;;4947355;29;20031;-44
2022/10/28 08:09:01;;;;;;;7.95;0.70;;;27.40;93.40;;;;;;4947399;29;20040;-43
2022/10/28 08:11:28;;;;;;;4.78;0.88;;;27.40;93.50;;;;;;4947119;29;20134;-47
2022/10/28 08:13:55;;;;;;;3.67;0.70;;;27.40;93.50;;;;;;4947526;29;20102;-42
2022/10/28 08:16:22;;;;;;;9.88;1.02;;;27.40;93.60;;;;;;4946934;29;20038;-43
2022/10/28 08:18:48;;;;;;;3.67;0.73;;;27.40;93.50;;;;;;4947401;29;20083;-43
2022/10/28 08:21:15;;;;;;;3.40;0.70;;;27.40;93.60;;;;;;4946973;29;20038;-49
2022/10/28 08:23:45;;;;;;;3.35;0.70;;;27.40;93.60;;;;;;4947191;29;20058;-43
2022/10/28 08:26:13;;;;;;;2.10;0.73;;;27.40;93.70;;;;;;4946879;29;20219;-43
2022/10/28 08:28:40;;;;;;;4.53;0.80;;;27.30;93.80;;;;;;4947163;29;20090;-42
2022/10/28 08:31:08;;;;;;;5.22;1.30;;;27.30;93.80;;;;;;4946741;29;20023;-41
2022/10/28 08:33:44;;;;;;;3.80;1.10;;;27.30;93.90;;;;;;4946835;29;20031;-43
2022/10/28 08:36:13;;;;;;;2.97;0.85;;;27.40;93.90;;;;;;4946718;29;20020;-42
2022/10/28 08:38:41;;;;;;;2.47;0.80;;;27.40;93.90;;;;;;4946925;29;20106;-43
2022/10/28 08:41:37;;;;;;;5.38;0.90;;;27.30;94.00;;;;;;4946744;29;20027;-47
2022/10/28 08:44:16;;;;;;;4.50;0.98;;;27.30;94.00;;;;;;4947063;29;20304;-48
2022/10/28 08:47:01;;;;;;;2.70;0.85;;;27.30;94.00;;;;;;4946447;29;20087;-45
2022/10/28 08:49:32;;;;;;;3.40;0.90;;;27.30;94.10;;;;;;4946331;29;20062;-49
2022/10/28 08:52:24;;;;;;;2.93;0.77;;;27.30;94.00;;;;;;4946385;29;20048;-52
2022/10/28 08:55:26;;;;;;;2.47;0.55;;;27.30;94.00;;;;;;4943697;29;20051;-42
2022/10/28 08:58:14;;;;;;;3.83;0.80;;;27.30;94.10;;;;;;4914870;29;20251;-41
2022/10/28 09:00:48;;;;;;;4.00;0.70;;;27.30;94.10;;;;;;4946659;29;20339;-45
2022/10/28 09:03:24;;;;;;;2.80;0.90;;;27.30;94.10;;;;;;4946693;29;20132;-49
2022/10/28 09:06:03;;;;;;;4.07;0.80;;;27.30;94.20;;;;;;4946232;29;20039;-42
2022/10/28 09:08:47;;;;;;;2.45;0.57;;;27.30;94.30;;;;;;4946562;29;20211;-47
2022/10/28 09:11:46;;;;;;;3.30;0.68;;;27.20;94.30;;;;;;4946174;29;20047;-42
2022/10/28 09:14:25;;;;;;;2.60;0.60;;;27.20;94.30;;;;;;4946598;29;20020;-42
2022/10/28 09:17:21;;;;;;;1.52;0.60;;;27.20;94.30;;;;;;4946569;29;20240;-47
2022/10/28 09:19:50;;;;;;;2.78;0.80;;;27.20;94.30;;;;;;4946356;29;20038;-42
2022/10/28 09:22:33;;;;;;;2.63;0.80;;;27.20;94.30;;;;;;4946276;29;20066;-43
2022/10/28 09:24:59;;;;;;;;;;;27.20;94.40;;;;;;4947201;29;20031;-45
2022/10/28 09:27:31;;;;;;;3.58;0.70;;;27.20;94.40;;;;;;4946157;29;19907;-43
2022/10/28 09:30:21;;;;;;;3.85;0.80;;;27.20;94.50;;;;;;4946124;29;20192;-43
2022/10/28 09:33:16;;;;;;;2.72;0.68;;;27.20;94.50;;;;;;4946404;29;20036;-44
2022/10/28 09:35:46;;;;;;;1.63;0.50;;;27.20;94.50;;;;;;4943655;29;20039;-43
2022/10/28 09:38:34;;;;;;;4.00;0.70;;;27.20;94.50;;;;;;4946341;29;20378;-43
2022/10/28 09:41:24;;;;;;;2.15;0.80;;;27.20;94.50;;;;;;4946094;29;20031;-42
2022/10/28 09:44:07;;;;;;;2.53;0.80;;;27.20;94.50;;;;;;4946876;29;20043;-44
2022/10/28 09:46:35;;;;;;;3.08;0.68;;;27.10;94.50;;;;;;4948071;29;20023;-45
2022/10/28 09:49:05;;;;;;;4.07;0.65;;;27.10;94.60;;;;;;4949569;29;20262;-43
2022/10/28 09:51:45;;;;;;;1.38;0.60;;;27.20;94.60;;;;;;4949655;29;20030;-40
2022/10/28 09:54:13;;;;;;;4.10;0.80;;;27.10;94.50;;;;;;4949915;29;20222;-44
2022/10/28 09:56:40;;;;;;;3.40;0.80;;;27.10;94.50;;;;;;4949827;29;20026;-50
2022/10/28 09:59:08;;;;;;;2.90;0.85;;;27.10;94.50;;;;;;4949858;29;20228;-52
2022/10/28 10:01:38;;;;;;;1.63;0.80;;;27.10;94.50;;;;;;4949526;29;20020;-48
2022/10/28 10:04:20;;;;;;;6.18;1.00;;;27.10;94.50;;;;;;4949813;29;20324;-44
2022/10/28 10:06:57;;;;;;;;;;;27.10;94.50;;;;;;4949705;29;20020;-44
2022/10/28 10:09:27;;;;;;;4.20;0.90;;;27.10;94.70;;;;;;4949680;29;19946;-43
2022/10/28 10:11:59;;;;;;;2.78;0.80;;;27.10;94.50;;;;;;4949396;29;20042;-51
2022/10/28 10:14:30;;;;;;;3.15;0.80;;;27.10;94.50;;;;;;4949735;29;20099;-42
2022/10/28 10:17:15;;;;;;;2.88;0.88;;;27.10;94.50;;;;;;4949218;29;20024;-43
2022/10/28 10:19:59;;;;;;;3.13;0.80;;;27.10;94.50;;;;;;4949751;29;20103;-43
2022/10/28 10:22:34;;;;;;;20.52;2.20;;;27.10;94.40;;;;;;4949398;29;20023;-43
2022/10/28 10:25:01;;;;;;;7.32;1.30;;;27.10;94.40;;;;;;4949009;29;20039;-42
2022/10/28 10:27:31;;;;;;;4.47;1.30;;;27.10;94.40;;;;;;4948986;29;20331;-42
2022/10/28 10:29:58;;;;;;;5.95;1.33;;;27.10;94.40;;;;;;4948083;29;20193;-42
2022/10/28 10:32:29;;;;;;;4.38;1.30;;;27.10;94.40;;;;;;4948897;29;20067;-43
2022/10/28 10:35:12;;;;;;;3.60;1.20;;;27.10;94.40;;;;;;4948279;29;20142;-44
2022/10/28 10:37:41;;;;;;;;;;;27.10;94.40;;;;;;4949519;29;20042;-42
2022/10/28 10:40:11;;;;;;;3.35;1.23;;;27.10;94.40;;;;;;4949015;29;20214;-43
2022/10/28 10:42:37;;;;;;;3.22;1.05;;;27.00;94.40;;;;;;4949114;29;20215;-43
2022/10/28 10:45:24;;;;;;;3.80;1.27;;;27.00;94.40;;;;;;4949214;29;20062;-44
2022/10/28 10:48:14;;;;;;;4.00;1.25;;;27.00;94.40;;;;;;4948103;29;20278;-43
2022/10/28 10:50:43;;;;;;;5.00;1.25;;;27.00;94.50;;;;;;4948768;29;20168;-51
2022/10/28 10:53:30;;;;;;;5.15;1.23;;;27.00;94.50;;;;;;4948584;29;20043;-44
2022/10/28 10:56:00;;;;;;;6.22;1.40;;;27.00;94.60;;;;;;4946394;29;20039;-44
2022/10/28 10:58:33;;;;;;;3.97;1.33;;;27.00;94.70;;;;;;4944304;29;20027;-42
2022/10/28 11:01:03;;;;;;;6.05;1.33;;;27.00;94.60;;;;;;4945989;29;20032;-43
2022/10/28 11:03:46;;;;;;;5.40;1.35;;;27.00;94.60;;;;;;4936345;29;20323;-44
2022/10/28 11:06:22;;;;;;;9.05;1.80;;;27.00;94.60;;;;;;4930859;29;20027;-41
2022/10/28 11:08:53;;;;;;;6.13;2.30;;;27.00;94.70;;;;;;4929999;29;20043;-46
2022/10/28 11:11:22;;;;;;;7.73;1.80;;;27.00;94.80;;;;;;4937590;29;20039;-44
2022/10/28 11:14:23;;;;;;;5.53;1.98;;;27.00;94.90;;;;;;4932794;29;20047;-46
2022/10/28 11:16:52;;;;;;;6.65;2.15;;;27.00;94.90;;;;;;4932359;29;20070;-46
2022/10/28 11:19:33;;;;;;;5.88;2.35;;;27.10;95.00;;;;;;4937989;29;20031;-45
2022/10/28 11:22:41;;;;;;;40.00;3.50;;;27.10;95.00;;;;;;4936185;29;20051;-46
2022/10/28 11:25:11;;;;;;;19.25;3.20;;;27.10;95.00;;;;;;4894854;29;20057;-43
2022/10/28 11:27:47;;;;;;;15.85;3.42;;;27.10;95.10;;;;;;4887733;29;20045;-48
2022/10/28 11:30:17;;;;;;;15.00;4.05;;;27.00;95.10;;;;;;4907815;29;20395;-45
2022/10/28 11:33:08;;;;;;;15.70;2.95;;;27.10;95.10;;;;;;4928825;29;20044;-48
2022/10/28 11:35:53;;;;;;;16.42;2.47;;;27.10;95.10;;;;;;4927542;29;20087;-45
2022/10/28 11:38:38;;;;;;;9.80;2.00;;;27.10;95.10;;;;;;4929654;29;20044;-49
2022/10/28 11:41:27;;;;;;;8.73;2.25;;;27.10;95.10;;;;;;4929086;29;20028;-44
2022/10/28 11:43:56;;;;;;;8.80;3.67;;;27.10;95.20;;;;;;4929881;29;20091;-44
2022/10/28 11:46:49;;;;;;;8.13;4.30;;;27.10;95.10;;;;;;4929357;29;20024;-45
2022/10/28 11:49:24;;;;;;;9.13;3.70;;;27.10;95.30;;;;;;4914449;29;20289;-45
2022/10/28 11:52:27;;;;;;;6.50;3.20;;;27.10;95.20;;;;;;4910443;29;20038;-45
2022/10/28 11:55:14;;;;;;;7.18;2.53;;;27.10;95.30;;;;;;4853083;29;20040;-45
2022/10/28 11:58:36;;;;;;;9.13;2.40;;;27.10;95.30;;;;;;4907319;29;20037;-46
2022/10/28 12:01:31;;;;;;;5.63;2.13;;;27.20;95.40;;;;;;4853009;29;20050;-47
2022/10/28 12:04:05;;;;;;;7.25;2.00;;;27.20;95.40;;;;;;4909001;29;20184;-46
2022/10/28 12:06:46;;;;;;;7.57;1.90;;;27.20;95.30;;;;;;4910184;29;20083;-48
2022/10/28 12:09:18;;;;;;;7.32;2.00;;;27.30;95.40;;;;;;4909985;29;20083;-44
2022/10/28 12:11:50;;;;;;;7.65;2.15;;;27.30;95.40;;;;;;4910048;29;20316;-46
2022/10/28 12:14:46;;;;;;;8.57;2.10;;;27.40;95.30;;;;;;4910021;29;20025;-48
2022/10/28 12:17:31;;;;;;;8.38;2.10;;;27.40;95.30;;;;;;4909894;29;20032;-49
2022/10/28 12:20:23;;;;;;;3.60;2.22;;;27.40;95.10;;;;;;4909811;29;20032;-47
2022/10/28 12:22:57;;;;;;;6.18;1.63;;;27.50;95.00;;;;;;4909517;29;20040;-46
2022/10/28 12:25:27;;;;;;;3.88;1.60;;;27.50;95.20;;;;;;4909716;29;20031;-46
2022/10/28 12:28:06;;;;;;;5.53;1.50;;;27.50;94.90;;;;;;4909709;29;20213;-51
2022/10/28 12:30:38;;;;;;;4.70;1.70;;;27.60;94.80;;;;;;4909800;29;20031;-52
2022/10/28 12:33:05;;;;;;;4.35;1.60;;;27.60;94.70;;;;;;4909806;29;20043;-45
2022/10/28 12:35:37;;;;;;;4.95;1.52;;;27.60;94.60;;;;;;4909863;29;20078;-45
2022/10/28 12:38:26;;;;;;;2.63;1.30;;;27.60;94.30;;;;;;4909817;29;20028;-49
2022/10/28 12:41:37;;;;;;;3.47;1.20;;;27.70;94.20;;;;;;4909835;29;20028;-51
2022/10/28 12:44:11;;;;;;;2.75;1.10;;;27.70;94.20;;;;;;4878082;29;20332;-45
2022/10/28 12:46:57;;;;;;;1.95;1.40;;;27.70;94.20;;;;;;4909598;29;20021;-43
2022/10/28 12:49:47;;;;;;;3.22;1.35;;;27.80;94.00;;;;;;4925197;29;20207;-45
2022/10/28 12:53:03;;;;;;;1.95;1.23;;;27.80;94.00;;;;;;4928658;29;20072;-44
2022/10/28 12:55:41;;;;;;;2.80;1.30;;;27.80;94.00;;;;;;4852119;29;20049;-46
2022/10/28 12:58:26;;;;;;;1.58;1.30;;;27.80;93.60;;;;;;4851914;29;20067;-44
2022/10/28 13:01:14;;;;;;;2.50;1.23;;;27.80;93.60;;;;;;4904430;29;20091;-49
2022/10/28 13:03:41;;;;;;;4.50;1.30;;;27.80;93.70;;;;;;4928599;29;20038;-43
2022/10/28 13:06:32;;;;;;;4.78;1.27;;;27.80;93.40;;;;;;4928160;29;20304;-44
2022/10/28 13:09:49;;;;;;;2.10;1.10;;;27.80;93.40;;;;;;4928431;29;20024;-44
2022/10/28 13:12:22;;;;;;;2.47;0.90;;;27.90;93.50;;;;;;4896835;29;20328;-48
2022/10/28 13:15:00;;;;;;;1.13;0.82;;;27.90;93.40;;;;;;4928333;29;20032;-44
2022/10/28 13:18:05;;;;;;;2.83;1.02;;;27.90;93.30;;;;;;4927677;29;20040;-48
2022/10/28 13:21:01;;;;;;;2.25;1.20;;;27.90;93.50;;;;;;4928393;29;20068;-45